Time;durP1;ratioP1;P1;durP2;ratioP2;P2;SDS_P1;SDS_P2;PMS_P1;PMS_P2;Temp;Humidity;BMP_temperature;BMP_pressure;BME280_temperature;BME280_humidity;BME280_pressure;Samples;Min_cycle;Max_cycle;Signal;HPM_P1;HPM_P2
2022/02/11 00:01:08;;;;;;;2.17;2.00;;;-0.40;99.90;-0.80;97148.00;;;;5072638;28;20465;-62
2022/02/11 00:06:56;;;;;;;3.80;2.80;;;-0.50;99.90;-0.60;97142.00;;;;5072439;28;20428;-63
2022/02/11 00:09:45;;;;;;;2.13;1.83;;;-0.50;99.90;-0.50;97149.00;;;;5071987;28;20423;-63
2022/02/11 00:12:34;;;;;;;6.00;3.17;;;-0.40;99.90;-0.20;97157.00;;;;5065356;28;20450;-61
2022/02/11 00:18:26;;;;;;;4.60;4.20;;;-0.30;99.90;0.40;97167.00;;;;5071588;28;20946;-64
2022/02/11 00:21:16;;;;;;;5.23;3.30;;;-0.20;99.90;0.10;97166.00;;;;5070370;28;21028;-62
2022/02/11 00:24:06;;;;;;;4.20;2.27;;;-0.10;99.90;-0.60;97154.00;;;;5064939;28;20430;-63
2022/02/11 00:27:17;;;;;;;5.93;2.80;;;-0.20;99.90;-0.10;97165.00;;;;5065152;28;20949;-62
2022/02/11 00:30:37;;;;;;;4.60;3.57;;;-0.20;99.90;-0.10;97162.00;;;;5066929;28;20422;-61
2022/02/11 00:33:28;;;;;;;1.00;0.83;;;-0.20;99.90;-1.00;97157.00;;;;5064555;28;20431;-62
2022/02/11 00:36:21;;;;;;;3.67;3.30;;;-0.40;99.90;-0.40;97163.00;;;;5065142;28;20446;-62
2022/02/11 00:39:31;;;;;;;7.50;2.90;;;-0.40;99.90;-0.10;97163.00;;;;5073985;28;20428;-62
2022/02/11 00:45:44;;;;;;;4.93;3.10;;;-0.30;99.90;0.20;97161.00;;;;5047888;28;20449;-60
2022/02/11 01:04:07;;;;;;;2.97;2.43;;;-0.20;99.90;-0.20;97164.00;;;;5064690;28;20430;-61
2022/02/11 01:06:57;;;;;;;4.77;2.93;;;-0.20;99.90;0.00;97175.00;;;;5073647;28;20433;-61
2022/02/11 01:09:46;;;;;;;6.97;3.63;;;-0.30;99.90;0.10;97161.00;;;;5071220;28;20776;-62
2022/02/11 01:12:37;;;;;;;4.27;2.80;;;0.40;99.90;0.20;97166.00;;;;5064034;28;20809;-62
2022/02/11 01:15:28;;;;;;;3.73;2.80;;;-0.20;99.90;0.00;97163.00;;;;5065062;28;20776;-62
2022/02/11 01:18:17;;;;;;;12.13;2.67;;;-0.20;99.90;0.00;97164.00;;;;5069476;28;20824;-61
2022/02/11 01:21:10;;;;;;;9.37;2.90;;;-0.20;99.90;0.20;97159.00;;;;5062186;28;20482;-60
2022/02/11 01:24:03;;;;;;;5.53;3.03;;;-0.20;99.90;-0.20;97170.00;;;;5065809;28;20500;-59
2022/02/11 01:27:12;;;;;;;5.30;2.83;;;-0.20;99.90;-0.80;97151.00;;;;5078046;28;20948;-62
2022/02/11 01:30:38;;;;;;;2.73;2.23;;;-0.40;99.90;-0.90;97166.00;;;;5073561;28;20968;-63
2022/02/11 01:36:54;;;;;;;6.80;3.23;;;1.00;99.90;-0.30;97160.00;;;;5056342;28;20460;-63
2022/02/11 01:49:24;;;;;;;6.37;2.50;;;-0.60;99.90;-0.30;97170.00;;;;5063709;28;20427;-61
2022/02/11 01:52:22;;;;;;;3.90;2.37;;;-0.50;99.90;0.10;97165.00;;;;5063076;28;20453;-63
2022/02/11 01:55:28;;;;;;;2.27;2.07;;;-0.40;99.90;0.20;97171.00;;;;5064259;28;20423;-61
2022/02/11 02:11:17;;;;;;;4.37;3.10;;;-0.50;99.90;-0.40;97181.00;;;;5074209;28;20426;-62
2022/02/11 02:23:51;;;;;;;3.60;2.83;;;-0.90;99.90;-0.70;97167.00;;;;5045558;28;20529;-60
2022/02/11 02:58:25;;;;;;;3.73;2.20;;;-1.30;99.90;-1.60;97142.00;;;;5067959;28;20434;-62
2022/02/11 03:01:41;;;;;;;2.27;2.07;;;-1.30;99.90;-1.20;97138.00;;;;5078475;28;20842;-61
2022/02/11 03:35:47;;;;;;;10.30;2.50;;;-1.20;99.90;-1.30;97117.00;;;;5086264;28;21192;-62
2022/02/11 03:51:30;;;;;;;2.93;1.83;;;-1.10;99.90;-1.80;97116.00;;;;5095224;28;20822;-62
2022/02/11 03:57:49;;;;;;;1.70;1.40;;;-1.40;99.90;-1.90;97129.00;;;;5100180;28;20436;-62
2022/02/11 05:00:11;;;;;;;2.63;1.90;;;-1.60;99.90;-1.60;97073.00;;;;5085439;28;20430;-62
2022/02/11 05:03:01;;;;;;;3.63;2.17;;;-1.60;99.90;-1.40;97071.00;;;;5099161;28;20847;-60
2022/02/11 05:05:50;;;;;;;2.40;2.23;;;-1.50;99.90;-1.20;97074.00;;;;5081885;28;20433;-61
2022/02/11 05:08:39;;;;;;;2.93;2.07;;;-1.40;99.90;-1.10;97078.00;;;;5086903;28;20426;-61
2022/02/11 05:11:28;;;;;;;5.43;2.33;;;-1.40;99.90;-1.10;97082.00;;;;5083750;28;20445;-62
2022/02/11 05:14:17;;;;;;;4.90;2.07;;;-1.30;99.90;-1.00;97071.00;;;;5084234;28;20947;-61
2022/02/11 05:17:06;;;;;;;2.83;2.63;;;-1.30;99.90;-1.60;97055.00;;;;5084253;28;20438;-61
2022/02/11 05:19:56;;;;;;;2.47;2.27;;;-1.30;99.90;-1.70;97057.00;;;;5089527;28;20437;-61
2022/02/11 05:22:45;;;;;;;3.07;2.30;;;-1.50;99.90;-1.40;97064.00;;;;5097638;28;20470;-60
2022/02/11 05:25:34;;;;;;;2.10;1.63;;;-1.40;99.90;-1.30;97065.00;;;;5063372;28;20431;-59
2022/02/11 05:28:23;;;;;;;7.97;2.97;;;-1.40;99.90;-1.00;97065.00;;;;5085225;28;20418;-61
2022/02/11 05:31:12;;;;;;;4.83;2.13;;;-1.30;99.90;-0.90;97064.00;;;;5084935;28;20452;-62
2022/02/11 05:34:03;;;;;;;3.57;2.83;;;-1.20;99.90;-1.10;97068.00;;;;5088359;28;20421;-60
2022/02/11 05:36:54;;;;;;;4.63;2.87;;;-1.20;99.90;-1.40;97069.00;;;;5088660;28;20425;-63
2022/02/11 05:39:42;;;;;;;3.93;2.77;;;-1.20;99.90;-2.10;97048.00;;;;5088969;28;20433;-61
2022/02/11 05:42:32;;;;;;;2.50;2.27;;;-1.40;99.90;-2.10;97048.00;;;;5086964;28;20574;-61
2022/02/11 05:45:21;;;;;;;5.37;2.60;;;-1.60;99.90;-2.10;97055.00;;;;5099796;28;20783;-62
2022/02/11 05:48:11;;;;;;;10.20;2.57;;;-1.70;99.90;-2.20;97049.00;;;;5067786;28;20806;-61
2022/02/11 05:50:59;;;;;;;2.73;2.53;;;-1.80;99.90;-2.30;97041.00;;;;5069642;28;20469;-61
2022/02/11 05:53:50;;;;;;;4.37;2.07;;;-1.90;99.90;-2.50;97036.00;;;;5072482;28;20422;-63
2022/02/11 05:56:38;;;;;;;2.20;2.03;;;-2.00;99.90;-2.40;97045.00;;;;5079205;28;20434;-60
2022/02/11 05:59:27;;;;;;;2.13;1.93;;;-2.00;99.90;-2.30;97038.00;;;;5073959;28;20540;-61
2022/02/11 06:02:16;;;;;;;3.40;2.30;;;-2.10;99.90;-2.20;97048.00;;;;5086392;28;20460;-61
2022/02/11 06:05:08;;;;;;;4.40;2.77;;;-2.10;99.90;-1.90;97054.00;;;;5088628;28;20499;-62
2022/02/11 06:07:57;;;;;;;4.10;3.03;;;-2.10;99.90;-1.70;97049.00;;;;5088303;28;20436;-63
2022/02/11 06:10:47;;;;;;;3.67;2.43;;;-2.00;99.90;-1.80;97046.00;;;;5088097;28;20739;-62
2022/02/11 06:13:36;;;;;;;1.93;1.83;;;-2.00;99.90;-2.00;97036.00;;;;5088895;28;20429;-60
2022/02/11 06:16:26;;;;;;;3.20;2.67;;;-1.90;99.90;-2.00;97042.00;;;;5087143;28;21210;-61
2022/02/11 06:19:15;;;;;;;13.20;3.13;;;-1.80;99.90;-1.60;97065.00;;;;5091445;28;20421;-63
2022/02/11 06:22:04;;;;;;;3.80;2.60;;;-1.70;99.90;-1.80;97059.00;;;;5071874;28;20810;-62
2022/02/11 06:24:53;;;;;;;3.53;2.53;;;-1.80;99.90;-2.10;97063.00;;;;5067016;28;20478;-62
2022/02/11 06:27:43;;;;;;;3.10;2.03;;;-1.90;99.90;-2.20;97060.00;;;;5068445;28;20433;-61
2022/02/11 06:30:32;;;;;;;3.27;2.20;;;-1.90;99.90;-2.10;97053.00;;;;5068502;28;20436;-62
2022/02/11 06:33:21;;;;;;;7.17;3.57;;;-2.00;99.90;-2.10;97060.00;;;;5062305;28;20423;-63
2022/02/11 06:36:10;;;;;;;8.10;4.27;;;-2.10;99.90;-2.40;97047.00;;;;5083210;28;20435;-63
2022/02/11 06:38:59;;;;;;;11.93;5.83;;;-2.10;99.90;-2.20;97035.00;;;;5071749;28;20936;-61
2022/02/11 06:41:48;;;;;;;9.93;6.03;;;-2.00;99.90;-2.10;97044.00;;;;5067238;28;20457;-61
2022/02/11 06:44:38;;;;;;;7.83;4.17;;;-2.00;99.90;-2.30;97029.00;;;;5093283;28;20885;-62
2022/02/11 06:47:27;;;;;;;2.80;2.60;;;-2.00;99.90;-2.30;97041.00;;;;5093456;28;20414;-62
2022/02/11 06:50:16;;;;;;;2.40;2.23;;;-2.00;99.90;-2.20;97032.00;;;;5088007;28;20978;-60
2022/02/11 06:53:09;;;;;;;2.77;2.53;;;-1.90;99.90;-2.40;97022.00;;;;5097819;28;20421;-62
2022/02/11 06:55:58;;;;;;;3.63;2.97;;;-1.90;99.90;-2.10;97035.00;;;;5071434;28;20440;-63
2022/02/11 06:58:49;;;;;;;6.43;3.70;;;-1.80;99.90;-1.90;97027.00;;;;5104726;28;20961;-61
2022/02/11 07:01:40;;;;;;;5.63;2.83;;;-1.80;99.90;-1.70;97037.00;;;;5091626;28;20449;-63
2022/02/11 07:04:32;;;;;;;5.53;2.63;;;-1.80;99.90;-1.80;97039.00;;;;5101622;28;20463;-62
2022/02/11 07:07:22;;;;;;;2.97;1.80;;;-1.60;99.90;-2.20;97031.00;;;;5095989;28;20444;-61
2022/02/11 07:10:11;;;;;;;2.30;2.10;;;-1.60;99.90;-2.00;97046.00;;;;5092821;28;20428;-61
2022/02/11 07:13:01;;;;;;;2.83;2.50;;;-1.70;99.90;-1.70;97044.00;;;;5106724;28;20421;-61
2022/02/11 07:15:49;;;;;;;2.60;2.07;;;-1.60;99.90;-1.60;97042.00;;;;5093100;28;20458;-62
2022/02/11 07:18:40;;;;;;;3.97;2.30;;;-1.60;99.90;-1.80;97026.00;;;;5088637;28;21205;-62
2022/02/11 07:21:31;;;;;;;3.20;2.70;;;-1.50;99.90;-1.90;97026.00;;;;5095273;28;20450;-62
2022/02/11 07:24:20;;;;;;;6.10;2.77;;;-1.50;99.90;-2.00;97020.00;;;;5092974;28;20461;-61
2022/02/11 07:27:10;;;;;;;8.27;3.83;;;-1.50;99.90;-1.40;97020.00;;;;5097345;28;20428;-63
2022/02/11 07:29:59;;;;;;;6.93;3.33;;;-1.40;99.90;-0.90;97011.00;;;;5089209;28;20429;-63
2022/02/11 07:32:48;;;;;;;7.60;4.77;;;-1.30;99.90;-0.90;97001.00;;;;5101245;28;21444;-63
2022/02/11 07:35:38;;;;;;;14.90;8.80;;;-1.20;99.90;-0.60;97008.00;;;;5097679;28;20455;-60
2022/02/11 07:38:27;;;;;;;16.93;11.67;;;-1.00;99.90;-0.60;97006.00;;;;5097607;28;20428;-62
2022/02/11 07:41:16;;;;;;;18.30;11.53;;;-0.90;99.90;-0.60;97009.00;;;;5103108;28;21152;-63
2022/02/11 07:44:06;;;;;;;7.63;4.80;;;-0.80;99.90;-0.70;97004.00;;;;5087371;28;20566;-63
2022/02/11 07:46:54;;;;;;;5.10;4.60;;;-0.70;99.90;-0.70;96992.00;;;;5089945;28;20513;-63
2022/02/11 07:49:43;;;;;;;7.63;4.37;;;-0.70;99.90;-0.90;97005.00;;;;5100325;28;20436;-63
2022/02/11 07:52:34;;;;;;;6.70;4.67;;;-0.60;99.90;-0.80;96989.00;;;;5088058;28;20446;-63
2022/02/11 07:55:24;;;;;;;3.60;3.30;;;-0.60;99.90;-0.60;96985.00;;;;5089767;28;20812;-62
2022/02/11 07:58:13;;;;;;;10.70;4.73;;;-0.50;99.90;-0.40;96975.00;;;;5107494;28;20508;-63
2022/02/11 08:01:02;;;;;;;8.67;5.23;;;-0.40;99.90;0.00;96980.00;;;;5092795;28;20460;-63
2022/02/11 08:03:51;;;;;;;4.60;3.67;;;-0.30;99.90;0.00;96971.00;;;;5093454;28;20456;-63
2022/02/11 08:06:40;;;;;;;7.20;4.50;;;-0.20;99.90;-0.30;96974.00;;;;5105280;28;20425;-62
2022/02/11 08:09:30;;;;;;;4.03;3.13;;;-0.10;99.90;-0.30;96967.00;;;;5099192;28;20839;-63
2022/02/11 08:12:19;;;;;;;4.27;3.87;;;0.00;99.90;0.00;96974.00;;;;5100235;28;20462;-63
2022/02/11 08:15:09;;;;;;;13.93;5.17;;;0.80;99.90;0.70;96982.00;;;;5090553;28;20430;-62
2022/02/11 08:17:58;;;;;;;8.73;4.90;;;0.20;99.90;1.00;96973.00;;;;5089167;28;20934;-62
2022/02/11 08:20:47;;;;;;;7.33;4.83;;;0.40;99.90;0.70;96968.00;;;;5096786;28;20431;-64
2022/02/11 08:23:36;;;;;;;13.77;7.13;;;0.60;99.90;0.70;96968.00;;;;5094815;28;20461;-60
2022/02/11 08:26:29;;;;;;;15.43;6.00;;;0.70;99.90;1.30;96999.00;;;;5097996;28;20796;-63
2022/02/11 08:29:21;;;;;;;3.07;2.83;;;0.90;99.90;1.60;96996.00;;;;5092898;28;21153;-61
2022/02/11 08:32:10;;;;;;;9.47;4.63;;;1.10;99.90;1.80;97001.00;;;;5083669;28;20524;-63
2022/02/11 08:35:00;;;;;;;11.47;6.63;;;1.40;99.90;1.70;96993.00;;;;5086905;27;21031;-62
2022/02/11 08:37:49;;;;;;;14.77;6.00;;;1.60;99.90;1.60;96996.00;;;;5083913;27;20506;-61
2022/02/11 08:40:38;;;;;;;14.00;5.67;;;1.60;99.90;2.20;96997.00;;;;5079917;27;20444;-62
2022/02/11 08:43:29;;;;;;;9.70;5.73;;;1.70;99.90;2.50;96996.00;;;;5080179;28;20830;-62
2022/02/11 08:46:21;;;;;;;228.90;108.77;;;1.90;99.90;2.90;96996.00;;;;5083885;27;20850;-62
2022/02/11 08:49:11;;;;;;;58.57;31.20;;;2.10;99.90;3.00;96997.00;;;;5086567;27;20444;-62
2022/02/11 08:52:01;;;;;;;18.17;9.97;;;2.40;99.90;3.10;97001.00;;;;5098943;28;20451;-63
2022/02/11 08:54:50;;;;;;;12.47;6.00;;;2.70;99.90;3.50;97004.00;;;;5092426;28;20946;-62
2022/02/11 08:57:44;;;;;;;9.60;6.23;;;3.00;99.90;3.60;97004.00;;;;5093008;28;20472;-64
2022/02/11 09:00:35;;;;;;;8.87;5.57;;;3.20;99.90;3.60;97003.00;;;;5094090;28;20428;-62
2022/02/11 09:03:24;;;;;;;9.13;4.70;;;4.90;99.90;3.90;97007.00;;;;5088395;28;20431;-63
2022/02/11 09:06:13;;;;;;;9.27;4.87;;;3.40;99.90;4.50;96989.00;;;;5100423;28;20480;-64
2022/02/11 09:09:04;;;;;;;7.77;4.77;;;3.50;99.90;5.20;97001.00;;;;5090709;28;20448;-61
2022/02/11 09:11:53;;;;;;;12.43;4.57;;;3.80;99.90;5.60;97010.00;;;;5085946;28;20998;-63
2022/02/11 09:14:41;;;;;;;7.57;3.90;;;4.10;99.90;6.00;97007.00;;;;5091517;28;20515;-61
2022/02/11 09:17:33;;;;;;;13.03;4.47;;;4.50;99.90;6.10;97001.00;;;;5099988;28;20493;-63
2022/02/11 09:20:23;;;;;;;9.87;4.47;;;4.80;99.90;6.40;97006.00;;;;5094030;28;20208;-64
2022/02/11 09:23:12;;;;;;;10.23;4.10;;;5.00;99.90;6.60;96999.00;;;;5096723;28;20210;-62
2022/02/11 09:26:02;;;;;;;6.17;4.00;;;5.30;99.90;6.90;97008.00;;;;5096544;28;20215;-64
2022/02/11 09:28:51;;;;;;;12.63;4.23;;;5.50;99.90;7.10;96999.00;;;;5091755;28;20235;-62
2022/02/11 09:31:40;;;;;;;10.10;4.80;;;5.80;99.90;7.30;96997.00;;;;5080609;28;21812;-63
2022/02/11 09:34:32;;;;;;;11.67;4.37;;;6.00;99.90;7.30;97000.00;;;;5078853;28;20985;-62
2022/02/11 09:37:21;;;;;;;7.67;4.83;;;6.20;99.90;7.60;96998.00;;;;5077794;28;20693;-63
2022/02/11 09:40:14;;;;;;;9.80;5.20;;;6.30;99.90;7.90;97000.00;;;;5079899;28;20623;-63
2022/02/11 09:43:04;;;;;;;7.47;3.97;;;6.60;99.90;8.20;97007.00;;;;5077545;28;22598;-64
2022/02/11 09:45:54;;;;;;;6.57;3.53;;;6.80;99.90;8.40;97010.00;;;;5079300;28;20503;-62
2022/02/11 09:48:42;;;;;;;7.73;4.10;;;7.00;99.90;8.40;97015.00;;;;5080225;28;20293;-62
2022/02/11 09:51:32;;;;;;;8.77;4.40;;;7.20;99.90;8.60;97012.00;;;;5076018;28;20235;-61
2022/02/11 09:54:22;;;;;;;4.50;3.20;;;7.30;99.90;9.30;97034.00;;;;5080544;28;20207;-63
2022/02/11 09:57:13;;;;;;;5.40;2.97;;;7.60;99.90;9.60;97040.00;;;;5080343;28;20569;-63
2022/02/11 10:00:02;;;;;;;2.97;2.70;;;8.00;99.90;9.60;97019.00;;;;5077196;28;22428;-62
2022/02/11 10:02:53;;;;;;;6.13;2.80;;;8.40;98.20;10.20;97038.00;;;;5084658;28;20254;-62
2022/02/11 10:05:41;;;;;;;7.53;2.67;;;8.80;95.50;10.60;97053.00;;;;5103269;28;20288;-63
2022/02/11 10:08:36;;;;;;;4.40;2.30;;;9.10;94.40;10.70;97042.00;;;;5095818;28;20202;-65
2022/02/11 10:11:24;;;;;;;6.43;2.70;;;9.30;92.30;11.10;97059.00;;;;5087604;28;20253;-65
2022/02/11 10:14:24;;;;;;;3.17;2.53;;;9.60;92.30;11.20;97047.00;;;;5098973;28;20283;-63
2022/02/11 10:17:19;;;;;;;5.20;3.53;;;9.80;91.10;11.30;97059.00;;;;5100463;28;20554;-65
2022/02/11 10:20:10;;;;;;;4.00;2.73;;;9.90;90.20;11.30;97057.00;;;;5101083;28;20709;-62
2022/02/11 10:23:17;;;;;;;4.13;3.20;;;10.40;87.30;11.70;97066.00;;;;5094667;28;20199;-65
2022/02/11 10:26:10;;;;;;;5.03;2.50;;;10.20;85.60;12.20;97072.00;;;;5090395;28;20226;-63
2022/02/11 10:28:59;;;;;;;3.93;2.57;;;10.50;85.80;12.50;97053.00;;;;5103862;28;20205;-64
2022/02/11 10:31:48;;;;;;;4.53;2.60;;;10.70;82.40;12.70;97047.00;;;;5096052;28;20593;-64
2022/02/11 10:34:39;;;;;;;5.20;2.63;;;11.00;82.40;13.00;97058.00;;;;5097553;28;21085;-65
2022/02/11 10:37:28;;;;;;;5.43;2.60;;;11.20;78.90;13.30;97039.00;;;;5096776;28;20594;-65
2022/02/11 10:40:30;;;;;;;6.53;3.07;;;11.50;79.60;13.80;97057.00;;;;5100950;28;20198;-64
2022/02/11 10:43:26;;;;;;;3.47;3.03;;;11.80;79.10;13.30;97058.00;;;;5100690;28;20202;-65
2022/02/11 10:46:19;;;;;;;3.50;2.13;;;11.90;75.20;13.20;97056.00;;;;5104783;28;20298;-63
2022/02/11 10:49:09;;;;;;;4.20;2.27;;;12.00;75.40;13.40;97036.00;;;;5098629;28;20206;-64
2022/02/11 10:52:11;;;;;;;17.07;3.30;;;12.20;72.00;14.00;97038.00;;;;5098945;28;20215;-65
2022/02/11 10:55:00;;;;;;;5.63;3.27;;;12.50;70.80;14.60;97040.00;;;;5103574;28;20208;-65
2022/02/11 10:57:55;;;;;;;4.27;2.30;;;12.90;70.00;14.80;97033.00;;;;5066359;28;20564;-64
2022/02/11 11:00:48;;;;;;;4.97;2.53;;;13.30;68.70;15.30;97035.00;;;;5085632;28;20214;-65
2022/02/11 11:03:38;;;;;;;4.80;2.07;;;13.60;67.00;15.80;97042.00;;;;5083840;28;20206;-64
2022/02/11 11:06:29;;;;;;;6.00;2.57;;;14.10;66.70;15.20;97053.00;;;;5086850;28;20690;-65
2022/02/11 11:09:20;;;;;;;4.00;1.87;;;14.30;61.40;15.10;97025.00;;;;5082544;28;20256;-65
2022/02/11 11:12:14;;;;;;;4.47;2.33;;;14.70;60.70;16.20;97023.00;;;;5084003;28;20234;-64
2022/02/11 11:15:05;;;;;;;3.10;2.10;;;14.90;61.60;17.20;97032.00;;;;5086472;28;20215;-64
2022/02/11 11:18:06;;;;;;;3.07;1.87;;;15.20;62.10;16.50;97025.00;;;;5092427;28;20206;-64
2022/02/11 11:20:57;;;;;;;5.23;2.80;;;15.60;58.50;17.30;97021.00;;;;5098392;28;20731;-64
2022/02/11 11:23:56;;;;;;;2.20;1.60;;;16.00;57.90;15.40;97035.00;;;;5083657;28;20211;-64
2022/02/11 11:26:47;;;;;;;2.47;2.27;;;15.90;56.10;15.90;97053.00;;;;5079713;28;21101;-65
2022/02/11 11:29:36;;;;;;;6.67;1.73;;;15.50;56.70;15.40;97023.00;;;;5081365;28;20620;-65
2022/02/11 11:32:25;;;;;;;3.47;1.97;;;15.30;56.70;17.30;97044.00;;;;5081592;28;20222;-65
2022/02/11 11:35:25;;;;;;;5.33;1.97;;;15.50;58.10;15.40;97025.00;;;;5080657;28;20217;-64
2022/02/11 11:38:16;;;;;;;3.10;1.37;;;15.90;56.50;13.90;97053.00;;;;5083299;28;20268;-58
2022/02/11 11:41:08;;;;;;;2.27;2.00;;;15.20;56.20;15.20;97058.00;;;;5080895;27;20355;-61
2022/02/11 11:43:59;;;;;;;2.17;1.67;;;14.90;56.90;16.50;97060.00;;;;5080462;28;20214;-62
2022/02/11 11:46:49;;;;;;;2.37;1.70;;;15.10;58.20;16.40;97088.00;;;;5076528;28;21136;-61
2022/02/11 11:49:41;;;;;;;5.57;2.17;;;15.40;57.40;15.80;97092.00;;;;5081495;28;20294;-61
2022/02/11 11:52:43;;;;;;;3.73;1.17;;;15.40;57.30;14.90;97085.00;;;;5078210;28;20227;-60
2022/02/11 11:55:39;;;;;;;1.87;1.30;;;15.10;56.20;15.00;97091.00;;;;5075595;28;20221;-65
2022/02/11 11:58:34;;;;;;;1.80;1.10;;;14.60;56.70;15.00;97111.00;;;;5080655;28;20225;-64
2022/02/11 12:01:25;;;;;;;2.87;1.17;;;14.40;57.20;15.00;97115.00;;;;5079077;28;20511;-62
2022/02/11 12:04:23;;;;;;;3.13;0.90;;;14.30;57.60;15.00;97124.00;;;;5084762;28;20217;-62
2022/02/11 12:07:14;;;;;;;2.77;1.20;;;14.20;57.70;14.80;97122.00;;;;5080444;28;20655;-62
2022/02/11 12:10:09;;;;;;;1.83;1.10;;;14.10;57.90;14.90;97134.00;;;;5080384;28;20588;-63
2022/02/11 12:12:58;;;;;;;1.20;0.90;;;14.00;58.40;15.00;97131.00;;;;5079410;28;20231;-62
2022/02/11 12:15:47;;;;;;;1.50;1.23;;;13.90;58.50;14.00;97125.00;;;;5080164;28;20220;-64
2022/02/11 12:18:37;;;;;;;0.83;0.77;;;13.80;57.80;14.60;97139.00;;;;5081805;28;20198;-62
2022/02/11 12:21:27;;;;;;;3.43;1.10;;;13.80;59.00;13.80;97130.00;;;;5078881;28;21327;-64
2022/02/11 12:27:30;;;;;;;0.87;0.87;;;13.40;59.30;13.40;97136.00;;;;5076418;28;20242;-61
2022/02/11 12:30:23;;;;;;;1.07;0.93;;;13.10;59.00;12.80;97136.00;;;;5075980;28;20298;-63
2022/02/11 12:33:11;;;;;;;0.90;0.90;;;12.80;60.20;13.20;97148.00;;;;5077733;28;20739;-62
2022/02/11 12:36:10;;;;;;;0.60;0.60;;;12.60;60.20;13.40;97149.00;;;;5077186;28;20207;-64
2022/02/11 12:38:59;;;;;;;0.70;0.70;;;12.60;60.40;13.50;97141.00;;;;5078773;28;20215;-64
2022/02/11 12:41:50;;;;;;;0.50;0.47;;;12.70;60.40;14.70;97134.00;;;;5076608;28;20326;-63
2022/02/11 12:44:43;;;;;;;1.73;0.70;;;12.90;60.90;14.10;97163.00;;;;5078817;28;20240;-64
2022/02/11 12:47:33;;;;;;;0.53;0.43;;;13.30;59.60;14.30;97164.00;;;;5078384;28;20645;-62
2022/02/11 12:50:30;;;;;;;0.80;0.60;;;13.40;59.00;13.00;97168.00;;;;5059696;28;20203;-62
2022/02/11 12:53:19;;;;;;;0.50;0.50;;;13.20;58.60;13.40;97177.00;;;;5057500;28;20230;-62
2022/02/11 12:56:13;;;;;;;0.50;0.50;;;13.00;59.50;12.60;97170.00;;;;5078873;28;20343;-64
2022/02/11 12:59:06;;;;;;;0.83;0.60;;;12.70;58.90;12.80;97168.00;;;;5079112;28;20608;-61
2022/02/11 13:01:58;;;;;;;0.40;0.40;;;12.50;59.30;12.60;97167.00;;;;5061780;28;20697;-65
2022/02/11 13:04:47;;;;;;;0.37;0.37;;;12.40;59.60;12.60;97174.00;;;;5077725;28;20228;-62
2022/02/11 13:07:38;;;;;;;0.40;0.40;;;12.10;60.30;13.30;97174.00;;;;5081692;28;20234;-62
2022/02/11 13:10:30;;;;;;;0.40;0.40;;;12.20;60.60;13.40;97173.00;;;;5075700;28;20707;-63
2022/02/11 13:13:23;;;;;;;0.50;0.47;;;12.40;60.40;13.50;97172.00;;;;5081086;28;20207;-63
2022/02/11 13:16:13;;;;;;;0.40;0.40;;;12.60;59.30;14.30;97177.00;;;;5082147;28;20219;-64
2022/02/11 13:19:12;;;;;;;4.37;0.60;;;12.80;59.10;14.20;97183.00;;;;5063110;28;20693;-62
2022/02/11 13:22:01;;;;;;;5.30;0.80;;;13.10;58.30;14.60;97184.00;;;;5079094;28;20226;-65
2022/02/11 13:24:50;;;;;;;0.30;0.30;;;13.30;58.30;13.10;97183.00;;;;5082557;28;20203;-64
2022/02/11 13:27:51;;;;;;;0.50;0.40;;;13.00;57.60;14.70;97152.00;;;;5080338;28;20313;-65
2022/02/11 13:30:45;;;;;;;0.80;0.40;;;13.20;57.50;15.70;97209.00;;;;5080362;28;20211;-66
2022/02/11 13:33:36;;;;;;;0.37;0.37;;;13.80;57.90;13.90;97192.00;;;;5075666;28;20211;-66
2022/02/11 13:36:27;;;;;;;0.47;0.40;;;13.80;56.10;14.60;97191.00;;;;5076996;28;20207;-65
2022/02/11 13:39:28;;;;;;;0.27;0.23;;;13.90;56.50;15.80;97215.00;;;;5078194;28;20211;-65
2022/02/11 13:42:19;;;;;;;0.30;0.27;;;14.10;56.50;15.50;97188.00;;;;5078027;28;20225;-62
2022/02/11 13:45:12;;;;;;;0.40;0.20;;;14.30;55.20;15.60;97211.00;;;;5079735;28;20709;-66
2022/02/11 13:48:07;;;;;;;0.60;0.37;;;14.50;54.00;16.20;97236.00;;;;5079275;28;20225;-67
2022/02/11 13:51:05;;;;;;;0.80;0.60;;;14.70;54.70;14.50;97238.00;;;;5084114;28;20697;-64
2022/02/11 13:53:56;;;;;;;3.50;0.30;;;14.60;53.30;13.60;97245.00;;;;5081457;28;20218;-64
2022/02/11 13:56:48;;;;;;;0.20;0.20;;;14.10;53.40;13.40;97240.00;;;;5085683;27;20682;-64
2022/02/11 13:59:38;;;;;;;0.80;0.40;;;13.70;53.90;12.60;97257.00;;;;5082436;27;20208;-63
2022/02/11 14:02:27;;;;;;;0.40;0.40;;;13.20;54.90;11.60;97241.00;;;;5080476;28;20379;-63
2022/02/11 14:05:16;;;;;;;0.60;0.30;;;12.60;55.00;11.90;97259.00;;;;5080102;27;20455;-64
2022/02/11 14:08:06;;;;;;;0.20;0.20;;;12.00;56.20;12.10;97257.00;;;;5081080;28;20281;-63
2022/02/11 14:11:15;;;;;;;1.50;0.50;;;11.70;56.60;11.50;97265.00;;;;5080666;28;20234;-66
2022/02/11 14:14:17;;;;;;;0.40;0.30;;;11.40;56.80;11.30;97268.00;;;;5082720;28;20289;-64
2022/02/11 14:17:06;;;;;;;2.00;0.50;;;11.10;57.40;11.50;97277.00;;;;5079907;28;20210;-65
2022/02/11 14:19:55;;;;;;;10.03;1.40;;;10.90;57.70;11.30;97284.00;;;;5080743;28;20219;-63
2022/02/11 14:22:44;;;;;;;0.40;0.40;;;10.70;57.90;11.20;97291.00;;;;5076605;28;20230;-64
2022/02/11 14:25:33;;;;;;;0.30;0.30;;;10.50;58.00;10.90;97284.00;;;;5081175;28;20268;-64
2022/02/11 14:28:26;;;;;;;0.57;0.50;;;10.40;58.10;10.90;97281.00;;;;5084600;28;20223;-63
2022/02/11 14:31:15;;;;;;;4.37;2.30;;;10.30;58.40;10.60;97307.00;;;;5079328;27;20219;-64
2022/02/11 14:34:04;;;;;;;1.13;0.40;;;10.10;58.30;10.30;97299.00;;;;5080519;28;20221;-64
2022/02/11 14:36:53;;;;;;;0.87;0.67;;;10.00;58.40;9.90;97313.00;;;;5079140;28;20385;-63
2022/02/11 14:39:43;;;;;;;0.50;0.40;;;9.80;57.90;10.00;97317.00;;;;5081921;28;20421;-63
2022/02/11 14:42:32;;;;;;;0.43;0.23;;;9.70;58.10;10.40;97328.00;;;;5076804;28;21467;-63
2022/02/11 14:45:24;;;;;;;1.03;0.83;;;9.60;58.40;10.50;97331.00;;;;5078293;27;20208;-64
2022/02/11 14:48:13;;;;;;;0.37;0.37;;;9.60;58.70;10.60;97339.00;;;;5084525;28;20222;-64
2022/02/11 14:51:02;;;;;;;0.70;0.40;;;9.60;58.70;10.50;97335.00;;;;5086430;28;20261;-64
2022/02/11 14:53:51;;;;;;;0.43;0.30;;;9.50;58.70;10.30;97342.00;;;;5083231;28;20210;-64
2022/02/11 14:56:41;;;;;;;0.20;0.20;;;9.50;58.80;10.20;97353.00;;;;5081624;28;20213;-64
2022/02/11 14:59:31;;;;;;;0.30;0.30;;;9.40;58.50;10.20;97353.00;;;;5080908;28;20214;-63
2022/02/11 15:02:22;;;;;;;1.60;0.30;;;9.40;58.70;10.10;97356.00;;;;5082181;28;20575;-63
2022/02/11 15:05:11;;;;;;;0.60;0.40;;;9.30;58.60;10.20;97367.00;;;;5081219;28;20266;-64
2022/02/11 15:08:00;;;;;;;0.60;0.40;;;9.30;59.00;10.30;97367.00;;;;5087335;28;20235;-65
2022/02/11 15:10:49;;;;;;;0.20;0.20;;;9.20;59.00;9.50;97370.00;;;;5080415;28;20215;-64
2022/02/11 15:13:38;;;;;;;0.53;0.47;;;9.20;57.70;9.90;97392.00;;;;5077265;28;20264;-64
2022/02/11 15:16:27;;;;;;;0.43;0.30;;;9.10;58.10;9.60;97383.00;;;;5080961;28;20222;-63
2022/02/11 15:19:18;;;;;;;0.40;0.40;;;9.00;58.10;9.50;97392.00;;;;5081574;28;20207;-64
2022/02/11 15:22:08;;;;;;;0.30;0.30;;;8.90;58.10;9.30;97397.00;;;;5080461;28;20284;-64
2022/02/11 15:24:57;;;;;;;0.30;0.30;;;8.80;58.30;9.30;97398.00;;;;5085927;28;20207;-63
2022/02/11 15:27:47;;;;;;;0.40;0.40;;;8.60;57.40;9.30;97409.00;;;;5079941;28;20762;-62
2022/02/11 15:30:36;;;;;;;1.17;0.70;;;8.60;57.60;9.30;97417.00;;;;5080776;28;20211;-63
2022/02/11 15:33:25;;;;;;;0.40;0.40;;;8.50;57.70;9.30;97435.00;;;;5082407;28;20215;-63
2022/02/11 15:36:17;;;;;;;0.43;0.43;;;8.40;57.80;8.80;97435.00;;;;5082038;28;20210;-63
2022/02/11 15:39:06;;;;;;;8.83;5.77;;;8.30;56.40;8.80;97441.00;;;;5082146;28;20199;-63
2022/02/11 15:41:55;;;;;;;2.10;1.20;;;8.20;57.00;8.90;97439.00;;;;5079218;27;20611;-66
2022/02/11 15:44:49;;;;;;;2.00;0.43;;;8.10;57.00;8.90;97449.00;;;;5082603;28;20749;-63
2022/02/11 15:47:38;;;;;;;4.40;2.83;;;8.10;56.80;8.30;97440.00;;;;5078311;28;20796;-63
2022/02/11 15:50:27;;;;;;;1.00;0.80;;;8.00;55.60;8.40;97456.00;;;;5081805;28;20396;-64
2022/02/11 15:53:18;;;;;;;10.50;6.17;;;7.80;55.20;8.40;97464.00;;;;5095886;28;20207;-62
2022/02/11 15:56:08;;;;;;;1.53;1.43;;;7.80;55.90;8.10;97477.00;;;;5102649;28;20677;-62
2022/02/11 15:58:57;;;;;;;1.07;0.50;;;7.70;54.80;7.90;97471.00;;;;5092243;28;20666;-64
2022/02/11 16:01:48;;;;;;;8.50;4.50;;;7.60;53.60;8.10;97469.00;;;;5091325;28;20219;-63
2022/02/11 16:04:36;;;;;;;0.50;0.50;;;7.50;53.80;8.10;97482.00;;;;5097565;28;20364;-62
2022/02/11 16:07:27;;;;;;;2.20;1.00;;;7.40;53.10;8.00;97483.00;;;;5100727;28;20210;-63